sensor_id;sensor_type;location;lat;lon;timestamp;P1;durP1;ratioP1;P2;durP2;ratioP2
25497;SDS011;13406;53.380;7.226;2022-09-09T00:02:16;10.10;;;5.63;;
25497;SDS011;13406;53.380;7.226;2022-09-09T00:04:46;5.20;;;4.70;;
25497;SDS011;13406;53.380;7.226;2022-09-09T00:10:58;7.70;;;5.67;;
25497;SDS011;13406;53.380;7.226;2022-09-09T00:12:55;6.43;;;5.43;;
25497;SDS011;13406;53.380;7.226;2022-09-09T00:15:46;6.13;;;5.60;;
25497;SDS011;13406;53.380;7.226;2022-09-09T00:21:34;6.40;;;5.80;;
25497;SDS011;13406;53.380;7.226;2022-09-09T00:24:10;7.73;;;5.43;;
25497;SDS011;13406;53.380;7.226;2022-09-09T00:26:51;6.23;;;5.63;;
25497;SDS011;13406;53.380;7.226;2022-09-09T00:32:05;8.73;;;6.10;;
25497;SDS011;13406;53.380;7.226;2022-09-09T00:34:46;6.57;;;5.50;;
25497;SDS011;13406;53.380;7.226;2022-09-09T00:37:18;6.27;;;5.67;;
25497;SDS011;13406;53.380;7.226;2022-09-09T00:39:45;6.77;;;5.10;;
25497;SDS011;13406;53.380;7.226;2022-09-09T00:42:20;8.03;;;5.50;;
25497;SDS011;13406;53.380;7.226;2022-09-09T00:55:21;5.87;;;4.57;;
25497;SDS011;13406;53.380;7.226;2022-09-09T00:58:06;6.63;;;5.33;;
25497;SDS011;13406;53.380;7.226;2022-09-09T01:00:39;6.30;;;4.87;;
25497;SDS011;13406;53.380;7.226;2022-09-09T01:17:01;7.63;;;5.47;;
25497;SDS011;13406;53.380;7.226;2022-09-09T01:19:45;6.30;;;4.90;;
25497;SDS011;13406;53.380;7.226;2022-09-09T01:25:28;6.00;;;5.40;;
25497;SDS011;13406;53.380;7.226;2022-09-09T01:28:15;5.73;;;5.20;;
25497;SDS011;13406;53.380;7.226;2022-09-09T01:30:44;7.23;;;5.73;;
25497;SDS011;13406;53.380;7.226;2022-09-09T01:33:11;10.57;;;6.40;;
25497;SDS011;13406;53.380;7.226;2022-09-09T01:35:50;6.23;;;4.20;;
25497;SDS011;13406;53.380;7.226;2022-09-09T01:38:20;8.27;;;5.10;;
25497;SDS011;13406;53.380;7.226;2022-09-09T01:40:47;4.60;;;4.20;;
25497;SDS011;13406;53.380;7.226;2022-09-09T01:43:14;7.57;;;5.20;;
25497;SDS011;13406;53.380;7.226;2022-09-09T01:45:39;5.90;;;5.07;;
25497;SDS011;13406;53.380;7.226;2022-09-09T01:48:07;7.70;;;5.33;;
25497;SDS011;13406;53.380;7.226;2022-09-09T01:50:32;5.93;;;5.13;;
25497;SDS011;13406;53.380;7.226;2022-09-09T01:52:59;6.77;;;5.77;;
25497;SDS011;13406;53.380;7.226;2022-09-09T01:55:37;7.20;;;6.00;;
25497;SDS011;13406;53.380;7.226;2022-09-09T02:00:29;6.00;;;5.20;;
25497;SDS011;13406;53.380;7.226;2022-09-09T02:03:18;7.80;;;5.30;;
25497;SDS011;13406;53.380;7.226;2022-09-09T02:06:03;5.83;;;5.10;;
25497;SDS011;13406;53.380;7.226;2022-09-09T02:08:40;6.60;;;5.93;;
25497;SDS011;13406;53.380;7.226;2022-09-09T02:11:14;6.70;;;5.03;;
25497;SDS011;13406;53.380;7.226;2022-09-09T02:13:42;5.80;;;5.17;;
25497;SDS011;13406;53.380;7.226;2022-09-09T02:21:31;6.20;;;5.40;;
25497;SDS011;13406;53.380;7.226;2022-09-09T02:24:00;7.57;;;6.13;;
25497;SDS011;13406;53.380;7.226;2022-09-09T02:26:29;6.47;;;5.57;;
25497;SDS011;13406;53.380;7.226;2022-09-09T02:28:59;8.20;;;6.90;;
25497;SDS011;13406;53.380;7.226;2022-09-09T02:31:27;8.83;;;6.67;;
25497;SDS011;13406;53.380;7.226;2022-09-09T02:33:59;8.43;;;6.40;;
25497;SDS011;13406;53.380;7.226;2022-09-09T02:36:27;7.57;;;6.70;;
25497;SDS011;13406;53.380;7.226;2022-09-09T02:38:58;8.90;;;7.00;;
25497;SDS011;13406;53.380;7.226;2022-09-09T02:41:30;9.30;;;6.50;;
25497;SDS011;13406;53.380;7.226;2022-09-09T02:43:58;7.60;;;6.40;;
25497;SDS011;13406;53.380;7.226;2022-09-09T02:49:08;9.70;;;6.90;;
25497;SDS011;13406;53.380;7.226;2022-09-09T02:54:33;10.10;;;6.20;;
25497;SDS011;13406;53.380;7.226;2022-09-09T02:59:48;12.57;;;9.03;;
25497;SDS011;13406;53.380;7.226;2022-09-09T03:02:14;12.20;;;7.83;;
25497;SDS011;13406;53.380;7.226;2022-09-09T03:04:40;7.30;;;6.60;;
25497;SDS011;13406;53.380;7.226;2022-09-09T03:07:08;7.83;;;7.00;;
25497;SDS011;13406;53.380;7.226;2022-09-09T03:09:34;12.60;;;8.53;;
25497;SDS011;13406;53.380;7.226;2022-09-09T03:12:00;9.23;;;7.20;;
25497;SDS011;13406;53.380;7.226;2022-09-09T03:14:25;9.83;;;7.70;;
25497;SDS011;13406;53.380;7.226;2022-09-09T03:16:51;9.40;;;7.77;;
25497;SDS011;13406;53.380;7.226;2022-09-09T03:19:17;11.10;;;7.37;;
25497;SDS011;13406;53.380;7.226;2022-09-09T03:21:44;10.00;;;7.37;;
25497;SDS011;13406;53.380;7.226;2022-09-09T03:24:10;9.00;;;8.10;;
25497;SDS011;13406;53.380;7.226;2022-09-09T03:26:35;9.80;;;7.80;;
25497;SDS011;13406;53.380;7.226;2022-09-09T03:29:02;13.60;;;7.03;;
25497;SDS011;13406;53.380;7.226;2022-09-09T03:31:31;10.00;;;7.17;;
25497;SDS011;13406;53.380;7.226;2022-09-09T03:33:57;9.97;;;7.17;;
25497;SDS011;13406;53.380;7.226;2022-09-09T03:36:23;7.63;;;6.83;;
25497;SDS011;13406;53.380;7.226;2022-09-09T03:38:51;9.67;;;7.63;;
25497;SDS011;13406;53.380;7.226;2022-09-09T03:41:16;10.67;;;6.33;;
25497;SDS011;13406;53.380;7.226;2022-09-09T03:43:42;9.23;;;7.47;;
25497;SDS011;13406;53.380;7.226;2022-09-09T03:46:08;7.67;;;6.97;;
25497;SDS011;13406;53.380;7.226;2022-09-09T03:48:33;8.50;;;6.93;;
25497;SDS011;13406;53.380;7.226;2022-09-09T03:50:58;8.73;;;7.40;;
25497;SDS011;13406;53.380;7.226;2022-09-09T03:53:26;10.73;;;7.73;;
25497;SDS011;13406;53.380;7.226;2022-09-09T03:55:53;7.70;;;6.90;;
25497;SDS011;13406;53.380;7.226;2022-09-09T03:58:20;9.27;;;7.40;;
25497;SDS011;13406;53.380;7.226;2022-09-09T04:00:56;11.17;;;7.97;;
25497;SDS011;13406;53.380;7.226;2022-09-09T04:03:23;8.80;;;7.80;;
25497;SDS011;13406;53.380;7.226;2022-09-09T04:05:50;8.10;;;7.30;;
25497;SDS011;13406;53.380;7.226;2022-09-09T04:08:16;10.93;;;8.10;;
25497;SDS011;13406;53.380;7.226;2022-09-09T04:10:41;10.50;;;7.90;;
25497;SDS011;13406;53.380;7.226;2022-09-09T04:13:07;8.17;;;7.07;;
25497;SDS011;13406;53.380;7.226;2022-09-09T04:15:32;7.57;;;6.87;;
25497;SDS011;13406;53.380;7.226;2022-09-09T04:17:58;8.70;;;7.40;;
25497;SDS011;13406;53.380;7.226;2022-09-09T04:20:23;9.97;;;7.07;;
25497;SDS011;13406;53.380;7.226;2022-09-09T04:22:49;8.30;;;7.50;;
25497;SDS011;13406;53.380;7.226;2022-09-09T04:25:14;8.13;;;7.30;;
25497;SDS011;13406;53.380;7.226;2022-09-09T04:27:40;7.93;;;7.07;;
25497;SDS011;13406;53.380;7.226;2022-09-09T04:30:07;10.67;;;6.67;;
25497;SDS011;13406;53.380;7.226;2022-09-09T04:32:34;7.90;;;6.67;;
25497;SDS011;13406;53.380;7.226;2022-09-09T04:35:00;8.53;;;7.10;;
25497;SDS011;13406;53.380;7.226;2022-09-09T04:37:26;8.83;;;6.70;;
25497;SDS011;13406;53.380;7.226;2022-09-09T04:39:51;8.40;;;6.27;;
25497;SDS011;13406;53.380;7.226;2022-09-09T04:42:17;9.20;;;6.37;;
25497;SDS011;13406;53.380;7.226;2022-09-09T04:44:44;10.30;;;6.20;;
25497;SDS011;13406;53.380;7.226;2022-09-09T04:47:10;7.43;;;5.17;;
25497;SDS011;13406;53.380;7.226;2022-09-09T04:49:35;7.00;;;5.90;;
25497;SDS011;13406;53.380;7.226;2022-09-09T04:52:01;11.00;;;6.77;;
25497;SDS011;13406;53.380;7.226;2022-09-09T04:54:28;7.93;;;5.30;;
25497;SDS011;13406;53.380;7.226;2022-09-09T04:56:53;9.47;;;5.33;;
25497;SDS011;13406;53.380;7.226;2022-09-09T04:59:19;8.83;;;5.87;;
25497;SDS011;13406;53.380;7.226;2022-09-09T05:01:45;8.73;;;5.57;;
25497;SDS011;13406;53.380;7.226;2022-09-09T05:04:11;7.53;;;6.17;;
25497;SDS011;13406;53.380;7.226;2022-09-09T05:06:36;11.90;;;5.80;;
25497;SDS011;13406;53.380;7.226;2022-09-09T05:09:02;6.60;;;4.90;;
25497;SDS011;13406;53.380;7.226;2022-09-09T05:11:28;9.30;;;5.80;;
25497;SDS011;13406;53.380;7.226;2022-09-09T05:13:57;8.13;;;6.40;;
25497;SDS011;13406;53.380;7.226;2022-09-09T05:16:22;7.70;;;5.30;;
25497;SDS011;13406;53.380;7.226;2022-09-09T05:18:48;11.10;;;5.07;;
25497;SDS011;13406;53.380;7.226;2022-09-09T05:21:16;9.57;;;5.43;;
25497;SDS011;13406;53.380;7.226;2022-09-09T05:23:42;5.80;;;5.20;;
25497;SDS011;13406;53.380;7.226;2022-09-09T05:26:11;5.30;;;4.63;;
25497;SDS011;13406;53.380;7.226;2022-09-09T05:28:38;8.13;;;6.17;;
25497;SDS011;13406;53.380;7.226;2022-09-09T05:31:07;11.37;;;5.47;;
25497;SDS011;13406;53.380;7.226;2022-09-09T05:33:34;8.80;;;4.83;;
25497;SDS011;13406;53.380;7.226;2022-09-09T05:36:01;9.40;;;5.00;;
25497;SDS011;13406;53.380;7.226;2022-09-09T05:38:30;7.33;;;5.47;;
25497;SDS011;13406;53.380;7.226;2022-09-09T05:40:57;8.03;;;5.20;;
25497;SDS011;13406;53.380;7.226;2022-09-09T05:43:23;9.17;;;5.07;;
25497;SDS011;13406;53.380;7.226;2022-09-09T05:45:58;6.77;;;4.73;;
25497;SDS011;13406;53.380;7.226;2022-09-09T05:48:37;5.63;;;5.03;;
25497;SDS011;13406;53.380;7.226;2022-09-09T05:51:04;6.50;;;5.07;;
25497;SDS011;13406;53.380;7.226;2022-09-09T05:53:34;5.60;;;4.07;;
25497;SDS011;13406;53.380;7.226;2022-09-09T05:56:00;5.60;;;4.93;;
25497;SDS011;13406;53.380;7.226;2022-09-09T05:58:28;7.27;;;4.90;;
25497;SDS011;13406;53.380;7.226;2022-09-09T06:01:00;7.40;;;4.57;;
25497;SDS011;13406;53.380;7.226;2022-09-09T06:03:26;6.17;;;4.73;;
25497;SDS011;13406;53.380;7.226;2022-09-09T06:05:58;4.30;;;3.70;;
25497;SDS011;13406;53.380;7.226;2022-09-09T06:08:25;5.90;;;4.27;;
25497;SDS011;13406;53.380;7.226;2022-09-09T06:10:51;6.43;;;4.23;;
25497;SDS011;13406;53.380;7.226;2022-09-09T06:13:17;7.20;;;4.93;;
25497;SDS011;13406;53.380;7.226;2022-09-09T06:15:52;7.80;;;4.90;;
25497;SDS011;13406;53.380;7.226;2022-09-09T06:18:18;7.77;;;4.40;;
25497;SDS011;13406;53.380;7.226;2022-09-09T06:20:54;7.40;;;4.57;;
25497;SDS011;13406;53.380;7.226;2022-09-09T06:23:23;7.10;;;3.90;;
25497;SDS011;13406;53.380;7.226;2022-09-09T06:25:50;5.73;;;4.20;;
25497;SDS011;13406;53.380;7.226;2022-09-09T06:28:16;8.10;;;4.40;;
25497;SDS011;13406;53.380;7.226;2022-09-09T06:30:42;4.97;;;3.80;;
25497;SDS011;13406;53.380;7.226;2022-09-09T06:33:08;5.30;;;4.43;;
25497;SDS011;13406;53.380;7.226;2022-09-09T06:35:34;5.20;;;3.60;;
25497;SDS011;13406;53.380;7.226;2022-09-09T06:38:00;5.00;;;3.70;;
25497;SDS011;13406;53.380;7.226;2022-09-09T06:40:25;7.20;;;3.57;;
25497;SDS011;13406;53.380;7.226;2022-09-09T06:42:51;5.23;;;3.63;;
25497;SDS011;13406;53.380;7.226;2022-09-09T06:45:16;3.70;;;3.30;;
25497;SDS011;13406;53.380;7.226;2022-09-09T06:47:42;6.27;;;3.67;;
25497;SDS011;13406;53.380;7.226;2022-09-09T06:50:08;4.63;;;3.43;;
25497;SDS011;13406;53.380;7.226;2022-09-09T06:52:35;4.00;;;3.47;;
25497;SDS011;13406;53.380;7.226;2022-09-09T06:55:00;4.27;;;3.00;;
25497;SDS011;13406;53.380;7.226;2022-09-09T06:57:26;5.20;;;3.50;;
25497;SDS011;13406;53.380;7.226;2022-09-09T06:59:51;4.43;;;3.43;;
25497;SDS011;13406;53.380;7.226;2022-09-09T07:02:16;5.63;;;3.10;;
25497;SDS011;13406;53.380;7.226;2022-09-09T07:04:42;6.07;;;3.03;;
25497;SDS011;13406;53.380;7.226;2022-09-09T07:07:07;10.63;;;3.50;;
25497;SDS011;13406;53.380;7.226;2022-09-09T07:09:34;6.40;;;3.17;;
25497;SDS011;13406;53.380;7.226;2022-09-09T07:12:00;3.10;;;2.80;;
25497;SDS011;13406;53.380;7.226;2022-09-09T07:14:25;5.00;;;2.97;;
25497;SDS011;13406;53.380;7.226;2022-09-09T07:16:52;5.83;;;3.40;;
25497;SDS011;13406;53.380;7.226;2022-09-09T07:19:17;3.93;;;3.53;;
25497;SDS011;13406;53.380;7.226;2022-09-09T07:21:42;6.40;;;3.20;;
25497;SDS011;13406;53.380;7.226;2022-09-09T07:24:08;5.73;;;3.43;;
25497;SDS011;13406;53.380;7.226;2022-09-09T07:26:36;3.77;;;3.40;;
25497;SDS011;13406;53.380;7.226;2022-09-09T07:29:02;3.83;;;3.43;;
25497;SDS011;13406;53.380;7.226;2022-09-09T07:31:29;3.30;;;3.07;;
25497;SDS011;13406;53.380;7.226;2022-09-09T07:33:57;4.63;;;3.80;;
25497;SDS011;13406;53.380;7.226;2022-09-09T07:36:28;5.93;;;3.50;;
25497;SDS011;13406;53.380;7.226;2022-09-09T07:38:56;5.20;;;3.40;;
25497;SDS011;13406;53.380;7.226;2022-09-09T07:41:28;3.40;;;3.10;;
25497;SDS011;13406;53.380;7.226;2022-09-09T07:43:57;3.87;;;3.57;;
25497;SDS011;13406;53.380;7.226;2022-09-09T07:46:24;4.13;;;3.80;;
25497;SDS011;13406;53.380;7.226;2022-09-09T07:48:54;9.53;;;3.53;;
25497;SDS011;13406;53.380;7.226;2022-09-09T07:51:31;4.17;;;2.60;;
25497;SDS011;13406;53.380;7.226;2022-09-09T07:53:59;4.23;;;3.50;;
25497;SDS011;13406;53.380;7.226;2022-09-09T07:56:27;4.00;;;3.60;;
25497;SDS011;13406;53.380;7.226;2022-09-09T07:58:54;4.07;;;3.43;;
25497;SDS011;13406;53.380;7.226;2022-09-09T08:01:22;3.43;;;3.13;;
25497;SDS011;13406;53.380;7.226;2022-09-09T08:03:52;4.47;;;3.23;;
25497;SDS011;13406;53.380;7.226;2022-09-09T08:06:28;4.47;;;4.00;;
25497;SDS011;13406;53.380;7.226;2022-09-09T08:08:59;5.60;;;4.50;;
25497;SDS011;13406;53.380;7.226;2022-09-09T08:11:26;4.73;;;3.43;;
25497;SDS011;13406;53.380;7.226;2022-09-09T08:13:53;7.43;;;4.80;;
25497;SDS011;13406;53.380;7.226;2022-09-09T08:16:20;4.90;;;4.00;;
25497;SDS011;13406;53.380;7.226;2022-09-09T08:18:51;7.10;;;4.50;;
25497;SDS011;13406;53.380;7.226;2022-09-09T08:21:18;4.90;;;4.07;;
25497;SDS011;13406;53.380;7.226;2022-09-09T08:23:45;5.50;;;3.60;;
25497;SDS011;13406;53.380;7.226;2022-09-09T08:26:19;6.17;;;4.30;;
25497;SDS011;13406;53.380;7.226;2022-09-09T08:28:47;6.03;;;4.17;;
25497;SDS011;13406;53.380;7.226;2022-09-09T08:31:16;4.90;;;3.97;;
25497;SDS011;13406;53.380;7.226;2022-09-09T08:33:44;4.97;;;4.03;;
25497;SDS011;13406;53.380;7.226;2022-09-09T08:36:13;4.07;;;3.40;;
25497;SDS011;13406;53.380;7.226;2022-09-09T08:38:43;5.00;;;3.13;;
25497;SDS011;13406;53.380;7.226;2022-09-09T08:43:50;4.70;;;4.13;;
25497;SDS011;13406;53.380;7.226;2022-09-09T08:46:30;6.30;;;3.90;;
25497;SDS011;13406;53.380;7.226;2022-09-09T08:51:43;11.03;;;4.50;;
25497;SDS011;13406;53.380;7.226;2022-09-09T08:54:08;6.07;;;3.70;;
25497;SDS011;13406;53.380;7.226;2022-09-09T08:56:35;5.40;;;3.83;;
25497;SDS011;13406;53.380;7.226;2022-09-09T08:59:01;4.93;;;3.80;;
25497;SDS011;13406;53.380;7.226;2022-09-09T09:04:27;7.00;;;3.57;;
25497;SDS011;13406;53.380;7.226;2022-09-09T09:12:27;3.03;;;2.67;;
25497;SDS011;13406;53.380;7.226;2022-09-09T09:15:00;6.60;;;2.60;;
25497;SDS011;13406;53.380;7.226;2022-09-09T09:17:26;7.83;;;3.00;;
25497;SDS011;13406;53.380;7.226;2022-09-09T09:19:56;4.13;;;2.50;;
25497;SDS011;13406;53.380;7.226;2022-09-09T09:22:34;9.27;;;3.33;;
25497;SDS011;13406;53.380;7.226;2022-09-09T09:30:15;4.40;;;2.80;;
25497;SDS011;13406;53.380;7.226;2022-09-09T09:32:54;8.03;;;3.10;;
25497;SDS011;13406;53.380;7.226;2022-09-09T09:35:24;3.53;;;2.80;;
25497;SDS011;13406;53.380;7.226;2022-09-09T09:37:50;4.57;;;2.60;;
25497;SDS011;13406;53.380;7.226;2022-09-09T09:40:17;3.60;;;2.37;;
25497;SDS011;13406;53.380;7.226;2022-09-09T09:42:55;4.30;;;2.50;;
25497;SDS011;13406;53.380;7.226;2022-09-09T09:45:42;6.97;;;3.60;;
25497;SDS011;13406;53.380;7.226;2022-09-09T09:48:11;4.40;;;2.60;;
25497;SDS011;13406;53.380;7.226;2022-09-09T09:50:51;6.73;;;4.03;;
25497;SDS011;13406;53.380;7.226;2022-09-09T09:56:02;5.47;;;3.37;;
25497;SDS011;13406;53.380;7.226;2022-09-09T09:58:31;5.93;;;3.63;;
25497;SDS011;13406;53.380;7.226;2022-09-09T10:01:03;6.90;;;3.40;;
25497;SDS011;13406;53.380;7.226;2022-09-09T10:03:33;4.17;;;3.00;;
25497;SDS011;13406;53.380;7.226;2022-09-09T12:23:43;4.23;;;1.97;;
25497;SDS011;13406;53.380;7.226;2022-09-09T12:26:21;7.60;;;1.83;;
25497;SDS011;13406;53.380;7.226;2022-09-09T12:29:11;6.43;;;1.67;;
25497;SDS011;13406;53.380;7.226;2022-09-09T12:32:15;5.03;;;1.40;;
25497;SDS011;13406;53.380;7.226;2022-09-09T12:34:49;3.00;;;1.10;;
25497;SDS011;13406;53.380;7.226;2022-09-09T12:37:31;6.40;;;2.00;;
25497;SDS011;13406;53.380;7.226;2022-09-09T12:42:28;3.20;;;1.23;;
25497;SDS011;13406;53.380;7.226;2022-09-09T12:44:58;6.33;;;1.77;;
25497;SDS011;13406;53.380;7.226;2022-09-09T12:47:30;4.70;;;1.30;;
25497;SDS011;13406;53.380;7.226;2022-09-09T12:50:16;4.77;;;1.30;;
25497;SDS011;13406;53.380;7.226;2022-09-09T12:52:44;6.83;;;1.73;;
25497;SDS011;13406;53.380;7.226;2022-09-09T12:55:16;4.03;;;1.47;;
25497;SDS011;13406;53.380;7.226;2022-09-09T12:57:46;4.93;;;1.47;;
25497;SDS011;13406;53.380;7.226;2022-09-09T13:00:16;3.43;;;1.30;;
25497;SDS011;13406;53.380;7.226;2022-09-09T13:02:46;3.90;;;1.63;;
25497;SDS011;13406;53.380;7.226;2022-09-09T13:05:16;3.77;;;1.30;;
25497;SDS011;13406;53.380;7.226;2022-09-09T13:07:49;4.57;;;1.43;;
25497;SDS011;13406;53.380;7.226;2022-09-09T13:10:18;7.60;;;1.50;;
25497;SDS011;13406;53.380;7.226;2022-09-09T13:12:48;4.77;;;1.40;;
25497;SDS011;13406;53.380;7.226;2022-09-09T13:15:16;5.43;;;1.37;;
25497;SDS011;13406;53.380;7.226;2022-09-09T13:18:01;4.40;;;1.40;;
25497;SDS011;13406;53.380;7.226;2022-09-09T13:20:31;3.10;;;1.07;;
25497;SDS011;13406;53.380;7.226;2022-09-09T13:22:56;3.03;;;1.53;;
25497;SDS011;13406;53.380;7.226;2022-09-09T13:25:26;4.33;;;1.73;;
25497;SDS011;13406;53.380;7.226;2022-09-09T13:27:55;4.57;;;1.20;;
25497;SDS011;13406;53.380;7.226;2022-09-09T13:30:34;4.47;;;1.50;;
25497;SDS011;13406;53.380;7.226;2022-09-09T13:35:50;4.10;;;1.10;;
25497;SDS011;13406;53.380;7.226;2022-09-09T13:38:19;3.87;;;1.20;;
25497;SDS011;13406;53.380;7.226;2022-09-09T13:40:56;3.33;;;1.10;;
25497;SDS011;13406;53.380;7.226;2022-09-09T13:43:24;2.90;;;1.40;;
25497;SDS011;13406;53.380;7.226;2022-09-09T13:45:55;6.07;;;1.70;;
25497;SDS011;13406;53.380;7.226;2022-09-09T13:48:29;2.40;;;1.07;;
25497;SDS011;13406;53.380;7.226;2022-09-09T13:50:57;1.73;;;1.00;;
25497;SDS011;13406;53.380;7.226;2022-09-09T13:53:28;5.57;;;1.43;;
25497;SDS011;13406;53.380;7.226;2022-09-09T13:55:53;3.50;;;1.00;;
25497;SDS011;13406;53.380;7.226;2022-09-09T13:58:19;4.77;;;1.30;;
25497;SDS011;13406;53.380;7.226;2022-09-09T14:00:45;4.77;;;1.23;;
25497;SDS011;13406;53.380;7.226;2022-09-09T14:03:11;5.43;;;1.60;;
25497;SDS011;13406;53.380;7.226;2022-09-09T14:05:37;2.50;;;1.33;;
25497;SDS011;13406;53.380;7.226;2022-09-09T14:08:03;3.57;;;1.20;;
25497;SDS011;13406;53.380;7.226;2022-09-09T14:10:30;4.97;;;1.37;;
25497;SDS011;13406;53.380;7.226;2022-09-09T14:12:56;3.67;;;1.20;;
25497;SDS011;13406;53.380;7.226;2022-09-09T14:15:21;4.10;;;1.53;;
25497;SDS011;13406;53.380;7.226;2022-09-09T14:17:47;4.03;;;1.30;;
25497;SDS011;13406;53.380;7.226;2022-09-09T14:20:13;5.20;;;1.20;;
25497;SDS011;13406;53.380;7.226;2022-09-09T14:22:40;5.47;;;1.00;;
25497;SDS011;13406;53.380;7.226;2022-09-09T14:25:06;6.07;;;1.27;;
25497;SDS011;13406;53.380;7.226;2022-09-09T14:27:32;8.03;;;1.90;;
25497;SDS011;13406;53.380;7.226;2022-09-09T14:29:58;6.63;;;1.30;;
25497;SDS011;13406;53.380;7.226;2022-09-09T14:32:25;3.47;;;1.37;;
25497;SDS011;13406;53.380;7.226;2022-09-09T14:34:50;8.60;;;2.70;;
25497;SDS011;13406;53.380;7.226;2022-09-09T14:37:16;2.30;;;1.10;;
25497;SDS011;13406;53.380;7.226;2022-09-09T14:39:42;5.97;;;1.40;;
25497;SDS011;13406;53.380;7.226;2022-09-09T14:42:12;7.53;;;1.30;;
25497;SDS011;13406;53.380;7.226;2022-09-09T14:44:38;5.27;;;1.00;;
25497;SDS011;13406;53.380;7.226;2022-09-09T14:47:04;4.10;;;0.90;;
25497;SDS011;13406;53.380;7.226;2022-09-09T14:49:30;4.90;;;0.90;;
25497;SDS011;13406;53.380;7.226;2022-09-09T14:51:56;6.83;;;0.90;;
25497;SDS011;13406;53.380;7.226;2022-09-09T14:54:22;4.67;;;0.90;;
25497;SDS011;13406;53.380;7.226;2022-09-09T14:56:48;4.30;;;0.77;;
25497;SDS011;13406;53.380;7.226;2022-09-09T14:59:13;2.80;;;0.80;;
25497;SDS011;13406;53.380;7.226;2022-09-09T15:01:39;3.40;;;1.00;;
25497;SDS011;13406;53.380;7.226;2022-09-09T15:04:05;1.23;;;0.60;;
25497;SDS011;13406;53.380;7.226;2022-09-09T15:06:32;2.00;;;0.70;;
25497;SDS011;13406;53.380;7.226;2022-09-09T15:09:00;1.10;;;0.53;;
25497;SDS011;13406;53.380;7.226;2022-09-09T15:11:27;2.30;;;0.80;;
25497;SDS011;13406;53.380;7.226;2022-09-09T15:13:55;2.63;;;0.80;;
25497;SDS011;13406;53.380;7.226;2022-09-09T15:16:22;1.73;;;0.73;;
25497;SDS011;13406;53.380;7.226;2022-09-09T15:18:50;2.00;;;0.70;;
25497;SDS011;13406;53.380;7.226;2022-09-09T15:21:19;3.60;;;1.27;;
25497;SDS011;13406;53.380;7.226;2022-09-09T15:23:46;1.30;;;0.70;;
25497;SDS011;13406;53.380;7.226;2022-09-09T15:26:12;4.07;;;1.13;;
25497;SDS011;13406;53.380;7.226;2022-09-09T15:28:39;5.80;;;1.20;;
25497;SDS011;13406;53.380;7.226;2022-09-09T15:31:07;3.03;;;1.30;;
25497;SDS011;13406;53.380;7.226;2022-09-09T15:33:49;2.93;;;1.10;;
25497;SDS011;13406;53.380;7.226;2022-09-09T15:36:17;1.47;;;0.90;;
25497;SDS011;13406;53.380;7.226;2022-09-09T15:38:44;3.30;;;1.00;;
25497;SDS011;13406;53.380;7.226;2022-09-09T15:41:10;3.13;;;0.90;;
25497;SDS011;13406;53.380;7.226;2022-09-09T15:43:37;2.60;;;1.00;;
25497;SDS011;13406;53.380;7.226;2022-09-09T15:46:08;2.83;;;0.77;;
25497;SDS011;13406;53.380;7.226;2022-09-09T15:48:58;3.53;;;1.00;;
25497;SDS011;13406;53.380;7.226;2022-09-09T15:51:29;2.77;;;0.93;;
25497;SDS011;13406;53.380;7.226;2022-09-09T15:53:55;2.33;;;0.93;;
25497;SDS011;13406;53.380;7.226;2022-09-09T15:56:23;1.57;;;0.70;;
25497;SDS011;13406;53.380;7.226;2022-09-09T15:58:49;2.87;;;1.00;;
25497;SDS011;13406;53.380;7.226;2022-09-09T16:01:17;2.43;;;1.00;;
25497;SDS011;13406;53.380;7.226;2022-09-09T16:03:44;3.03;;;1.10;;
25497;SDS011;13406;53.380;7.226;2022-09-09T16:06:15;2.70;;;1.10;;
25497;SDS011;13406;53.380;7.226;2022-09-09T16:08:47;2.40;;;1.13;;
25497;SDS011;13406;53.380;7.226;2022-09-09T16:11:18;2.40;;;1.00;;
25497;SDS011;13406;53.380;7.226;2022-09-09T16:13:50;2.63;;;1.10;;
25497;SDS011;13406;53.380;7.226;2022-09-09T16:16:18;3.80;;;1.10;;
25497;SDS011;13406;53.380;7.226;2022-09-09T16:18:47;4.80;;;1.17;;
25497;SDS011;13406;53.380;7.226;2022-09-09T16:21:16;3.10;;;1.00;;
25497;SDS011;13406;53.380;7.226;2022-09-09T16:23:43;4.13;;;0.87;;
25497;SDS011;13406;53.380;7.226;2022-09-09T16:26:13;5.53;;;1.13;;
25497;SDS011;13406;53.380;7.226;2022-09-09T16:28:39;3.70;;;0.90;;
25497;SDS011;13406;53.380;7.226;2022-09-09T16:31:06;2.33;;;0.97;;
25497;SDS011;13406;53.380;7.226;2022-09-09T16:33:32;4.43;;;1.60;;
25497;SDS011;13406;53.380;7.226;2022-09-09T16:36:04;3.30;;;1.23;;
25497;SDS011;13406;53.380;7.226;2022-09-09T16:38:30;4.90;;;1.40;;
25497;SDS011;13406;53.380;7.226;2022-09-09T16:40:59;4.93;;;1.40;;
25497;SDS011;13406;53.380;7.226;2022-09-09T16:43:25;3.73;;;1.33;;
25497;SDS011;13406;53.380;7.226;2022-09-09T16:45:50;10.40;;;1.90;;
25497;SDS011;13406;53.380;7.226;2022-09-09T16:48:16;8.13;;;1.83;;
25497;SDS011;13406;53.380;7.226;2022-09-09T16:50:41;4.30;;;1.10;;
25497;SDS011;13406;53.380;7.226;2022-09-09T16:53:07;4.57;;;1.30;;
25497;SDS011;13406;53.380;7.226;2022-09-09T16:55:42;4.80;;;1.10;;
25497;SDS011;13406;53.380;7.226;2022-09-09T16:58:10;4.10;;;1.17;;
25497;SDS011;13406;53.380;7.226;2022-09-09T17:00:36;3.37;;;1.03;;
25497;SDS011;13406;53.380;7.226;2022-09-09T17:03:02;4.40;;;1.07;;
25497;SDS011;13406;53.380;7.226;2022-09-09T17:05:27;2.30;;;0.97;;
25497;SDS011;13406;53.380;7.226;2022-09-09T17:07:54;2.90;;;0.83;;
25497;SDS011;13406;53.380;7.226;2022-09-09T17:10:23;3.47;;;1.17;;
25497;SDS011;13406;53.380;7.226;2022-09-09T17:12:50;2.57;;;1.00;;
25497;SDS011;13406;53.380;7.226;2022-09-09T17:15:16;2.33;;;0.80;;
25497;SDS011;13406;53.380;7.226;2022-09-09T17:17:43;1.53;;;0.80;;
25497;SDS011;13406;53.380;7.226;2022-09-09T17:20:10;1.47;;;0.90;;
25497;SDS011;13406;53.380;7.226;2022-09-09T17:22:36;1.07;;;0.70;;
25497;SDS011;13406;53.380;7.226;2022-09-09T17:25:02;2.47;;;0.80;;
25497;SDS011;13406;53.380;7.226;2022-09-09T17:27:28;1.63;;;0.80;;
25497;SDS011;13406;53.380;7.226;2022-09-09T17:29:57;2.17;;;0.90;;
25497;SDS011;13406;53.380;7.226;2022-09-09T17:32:23;1.40;;;0.70;;
25497;SDS011;13406;53.380;7.226;2022-09-09T17:34:49;2.47;;;0.97;;
25497;SDS011;13406;53.380;7.226;2022-09-09T17:37:14;2.20;;;0.80;;
25497;SDS011;13406;53.380;7.226;2022-09-09T17:39:39;3.43;;;1.20;;
25497;SDS011;13406;53.380;7.226;2022-09-09T17:42:05;1.40;;;0.70;;
25497;SDS011;13406;53.380;7.226;2022-09-09T17:44:32;2.10;;;1.00;;
25497;SDS011;13406;53.380;7.226;2022-09-09T17:46:58;1.97;;;0.97;;
25497;SDS011;13406;53.380;7.226;2022-09-09T17:49:24;2.83;;;1.20;;
25497;SDS011;13406;53.380;7.226;2022-09-09T17:51:50;0.90;;;0.80;;
25497;SDS011;13406;53.380;7.226;2022-09-09T17:54:17;3.00;;;1.50;;
25497;SDS011;13406;53.380;7.226;2022-09-09T17:56:44;2.50;;;0.80;;
25497;SDS011;13406;53.380;7.226;2022-09-09T17:59:11;2.43;;;0.97;;
25497;SDS011;13406;53.380;7.226;2022-09-09T18:01:39;1.77;;;1.00;;
25497;SDS011;13406;53.380;7.226;2022-09-09T18:04:08;1.67;;;1.00;;
25497;SDS011;13406;53.380;7.226;2022-09-09T18:06:38;2.20;;;0.83;;
25497;SDS011;13406;53.380;7.226;2022-09-09T18:09:06;1.60;;;0.97;;
25497;SDS011;13406;53.380;7.226;2022-09-09T18:11:37;1.90;;;0.83;;
25497;SDS011;13406;53.380;7.226;2022-09-09T18:14:08;2.33;;;0.90;;
25497;SDS011;13406;53.380;7.226;2022-09-09T18:16:35;2.17;;;1.03;;
25497;SDS011;13406;53.380;7.226;2022-09-09T18:19:02;3.10;;;0.90;;
25497;SDS011;13406;53.380;7.226;2022-09-09T18:21:31;1.50;;;0.90;;
25497;SDS011;13406;53.380;7.226;2022-09-09T18:24:00;3.43;;;1.50;;
25497;SDS011;13406;53.380;7.226;2022-09-09T18:26:28;4.03;;;1.20;;
25497;SDS011;13406;53.380;7.226;2022-09-09T18:28:56;2.67;;;1.17;;
25497;SDS011;13406;53.380;7.226;2022-09-09T18:31:24;2.80;;;1.23;;
25497;SDS011;13406;53.380;7.226;2022-09-09T18:33:51;3.50;;;1.27;;
25497;SDS011;13406;53.380;7.226;2022-09-09T18:36:21;1.73;;;1.03;;